South Casco, Maine
Current Conditions -  °F | °C
As of 12:35 AM on Thursday 23 Oct 2014 (Local Time) from KLEW Reporting Station
Overcast Overcast  
Wind Chill: 36°   Ceiling: 900
Heat Index: 45°   Visibility: 7mi
Dew Point: 41°   Wind: 21mph
Humidity: 87%   Direction: 30°NNE
Pressure: 30"   Gusts: 28mph
Location:  43.91°N, 70.52°W
Report Text: KLEW 230435Z AUTO 03018G24KT 7SM OVC009 07/05 A3000 RMK AO1
Loading
Personal Weather Stations






























Interactive Weather Map
Tropical Storm Tracking
New forecast layout! Learn more

10-Day Weather Forecast

Advertisements
Track Severe Weather on mobile